Time;durP1;ratioP1;P1;durP2;ratioP2;P2;SDS_P1;SDS_P2;PMS_P1;PMS_P2;Temp;Humidity;BMP_temperature;BMP_pressure;BME280_temperature;BME280_humidity;BME280_pressure;Samples;Min_cycle;Max_cycle;Signal;HPM_P1;HPM_P2
2022/07/27 00:01:13;;;;;;;13.02;2.80;;;;;;;12.45;100.00;101865.69;5052770;28;20029;-63
2022/07/27 00:03:38;;;;;;;13.07;2.80;;;;;;;12.44;100.00;101860.38;5052732;28;20040;-64
2022/07/27 00:06:03;;;;;;;10.32;2.75;;;;;;;12.40;100.00;101861.19;5052664;28;20029;-64
2022/07/27 00:08:29;;;;;;;9.63;2.70;;;;;;;12.35;100.00;101851.41;5052719;28;20047;-64
2022/07/27 00:10:54;;;;;;;16.25;2.80;;;;;;;12.40;100.00;101856.78;5052450;28;20048;-63
2022/07/27 00:13:20;;;;;;;12.45;2.80;;;;;;;12.34;100.00;101854.03;5052552;28;20088;-63
2022/07/27 00:15:45;;;;;;;10.48;2.78;;;;;;;12.32;100.00;101855.78;5052737;28;20068;-64
2022/07/27 00:18:10;;;;;;;12.73;2.70;;;;;;;12.20;100.00;101857.41;5052712;28;20031;-64
2022/07/27 00:20:38;;;;;;;11.10;2.70;;;;;;;12.10;100.00;101859.91;5052675;28;20029;-64
2022/07/27 00:23:04;;;;;;;10.18;2.80;;;;;;;12.03;100.00;101858.94;5052676;28;20021;-64
2022/07/27 00:25:29;;;;;;;11.57;3.03;;;;;;;12.01;100.00;101856.25;5052592;28;20127;-63
2022/07/27 00:27:57;;;;;;;13.63;2.80;;;;;;;11.87;100.00;101855.13;5052398;28;20457;-64
2022/07/27 00:30:24;;;;;;;8.98;2.60;;;;;;;11.68;100.00;101856.59;5052354;28;20049;-64
2022/07/27 00:32:49;;;;;;;14.27;2.95;;;;;;;11.60;100.00;101859.13;5052390;28;20021;-63
2022/07/27 00:35:15;;;;;;;11.25;2.88;;;;;;;11.66;100.00;101860.97;5052413;28;20075;-63
2022/07/27 00:37:40;;;;;;;12.68;2.60;;;;;;;11.55;100.00;101859.91;5052402;28;20100;-63
2022/07/27 00:40:06;;;;;;;12.73;3.15;;;;;;;11.48;100.00;101859.81;5052524;28;20029;-63
2022/07/27 00:42:33;;;;;;;11.32;3.10;;;;;;;11.57;100.00;101853.78;5052265;28;20090;-63
2022/07/27 00:44:58;;;;;;;13.43;3.40;;;;;;;11.55;100.00;101854.59;5052144;28;20056;-64
2022/07/27 00:47:24;;;;;;;11.45;3.22;;;;;;;11.55;100.00;101859.91;5052214;28;20064;-63
2022/07/27 00:49:50;;;;;;;12.02;3.20;;;;;;;11.52;100.00;101855.47;5052297;28;20028;-63
2022/07/27 00:52:16;;;;;;;11.77;3.17;;;;;;;11.49;100.00;101860.72;5052533;28;20057;-63
2022/07/27 00:54:43;;;;;;;11.70;3.28;;;;;;;11.40;100.00;101856.16;5056044;28;20032;-63
2022/07/27 00:57:12;;;;;;;11.63;3.10;;;;;;;11.36;100.00;101858.69;5056273;28;20033;-64
2022/07/27 00:59:39;;;;;;;13.38;3.20;;;;;;;11.30;100.00;101856.84;5056130;28;20032;-63
2022/07/27 01:02:05;;;;;;;12.07;3.20;;;;;;;11.32;100.00;101863.06;5056077;28;20029;-64
2022/07/27 01:04:30;;;;;;;13.38;3.47;;;;;;;11.35;100.00;101849.88;5056005;28;20035;-63
2022/07/27 01:06:56;;;;;;;10.77;3.20;;;;;;;11.23;100.00;101853.22;5055824;28;20105;-63
2022/07/27 01:12:09;;;;;;;15.30;3.63;;;;;;;11.26;100.00;101857.66;5052403;28;20052;-63
2022/07/27 01:14:37;;;;;;;15.55;3.78;;;;;;;11.22;100.00;101856.72;5052143;28;20468;-63
2022/07/27 01:17:02;;;;;;;14.65;3.80;;;;;;;11.26;100.00;101852.38;5051702;28;20032;-63
2022/07/27 01:19:27;;;;;;;13.45;3.60;;;;;;;11.14;100.00;101856.59;5055694;28;20021;-66
2022/07/27 01:21:53;;;;;;;15.77;3.60;;;;;;;11.06;100.00;101854.66;5056034;28;20472;-64
2022/07/27 01:24:18;;;;;;;12.60;3.40;;;;;;;10.95;100.00;101849.16;5055496;28;20162;-64
2022/07/27 01:26:43;;;;;;;10.57;3.35;;;;;;;10.86;100.00;101854.28;5055255;28;20314;-65
2022/07/27 01:29:09;;;;;;;12.07;3.38;;;;;;;10.70;100.00;101856.59;5055528;28;20152;-66
2022/07/27 01:31:34;;;;;;;10.60;3.50;;;;;;;10.61;100.00;101859.09;5055514;28;20028;-65
2022/07/27 01:33:59;;;;;;;12.65;3.70;;;;;;;10.56;100.00;101863.41;5055499;28;20053;-65
2022/07/27 01:36:25;;;;;;;17.30;4.10;;;;;;;10.51;100.00;101859.75;5055261;28;20107;-65
2022/07/27 01:38:51;;;;;;;13.77;3.85;;;;;;;10.48;100.00;101859.69;5055191;28;20021;-66
2022/07/27 01:41:16;;;;;;;11.93;3.70;;;;;;;10.41;100.00;101854.28;5055519;28;20494;-63
2022/07/27 01:43:41;;;;;;;13.23;3.80;;;;;;;10.30;100.00;101861.06;5055113;28;20468;-63
2022/07/27 01:46:06;;;;;;;9.75;3.53;;;;;;;10.23;100.00;101849.44;5055101;28;20116;-64
2022/07/27 01:48:32;;;;;;;13.10;3.55;;;;;;;10.16;100.00;101850.16;5055392;28;20116;-63
2022/07/27 01:50:57;;;;;;;13.95;3.72;;;;;;;10.16;100.00;101849.28;5055001;28;20131;-63
2022/07/27 01:53:23;;;;;;;14.63;3.70;;;;;;;10.18;100.00;101848.47;5054924;28;20069;-64
2022/07/27 01:55:50;;;;;;;15.57;3.85;;;;;;;10.15;100.00;101850.13;5055355;28;20029;-63
2022/07/27 01:58:15;;;;;;;14.07;3.70;;;;;;;10.10;100.00;101848.28;5054889;28;20021;-64
2022/07/27 02:00:41;;;;;;;11.75;3.50;;;;;;;10.05;100.00;101844.66;5054920;28;20028;-64
2022/07/27 02:03:08;;;;;;;11.43;3.63;;;;;;;10.09;100.00;101842.97;5055114;28;20029;-63
2022/07/27 02:05:35;;;;;;;13.55;3.80;;;;;;;10.05;100.00;101844.66;5053488;28;20536;-63
2022/07/27 02:08:01;;;;;;;15.05;3.83;;;;;;;10.07;100.00;101848.22;5054670;28;20025;-64
2022/07/27 02:10:26;;;;;;;13.18;3.90;;;;;;;10.07;100.00;101842.94;5054746;28;20128;-64
2022/07/27 02:12:52;;;;;;;11.57;3.75;;;;;;;10.08;100.00;101839.44;5054427;28;20132;-63
2022/07/27 02:15:20;;;;;;;13.07;3.70;;;;;;;10.11;100.00;101849.19;5054763;28;20096;-64
2022/07/27 02:17:48;;;;;;;12.82;3.60;;;;;;;10.03;100.00;101840.19;5054962;28;20025;-63
2022/07/27 02:20:15;;;;;;;14.73;3.75;;;;;;;10.08;100.00;101844.72;5054460;28;20032;-63
2022/07/27 02:22:42;;;;;;;15.48;3.45;;;;;;;10.05;100.00;101844.66;5054599;28;20025;-63
2022/07/27 02:25:08;;;;;;;10.30;3.30;;;;;;;9.94;100.00;101833.84;5054716;28;20094;-66
2022/07/27 02:27:34;;;;;;;14.52;3.67;;;;;;;9.93;100.00;101839.09;5054402;28;20025;-66
2022/07/27 02:29:59;;;;;;;14.52;3.70;;;;;;;9.92;100.00;101838.19;5054499;28;20025;-66
2022/07/27 02:32:25;;;;;;;13.98;3.80;;;;;;;9.86;100.00;101831.88;5054430;28;20396;-66
2022/07/27 02:34:50;;;;;;;14.63;4.07;;;;;;;9.86;100.00;101839.78;5054373;28;20107;-64
2022/07/27 02:37:16;;;;;;;13.63;3.70;;;;;;;9.77;100.00;101830.81;5054183;28;20120;-64
2022/07/27 02:39:41;;;;;;;14.25;3.90;;;;;;;9.81;100.00;101833.53;5054026;28;20028;-65
2022/07/27 02:42:07;;;;;;;14.70;3.70;;;;;;;9.67;100.00;101828.81;5054203;28;20028;-64
2022/07/27 02:44:32;;;;;;;12.80;3.60;;;;;;;9.61;100.00;101831.31;5053132;28;20037;-66
2022/07/27 02:46:57;;;;;;;14.00;3.50;;;;;;;9.58;100.00;101832.13;5053842;28;20490;-66
2022/07/27 02:49:23;;;;;;;11.13;3.50;;;;;;;9.43;100.00;101826.47;5053814;28;20178;-64
2022/07/27 02:51:50;;;;;;;11.98;3.63;;;;;;;9.41;100.00;101822.91;5052839;28;20041;-66
2022/07/27 02:54:20;;;;;;;11.13;3.60;;;;;;;9.38;100.00;101836.03;5053755;28;20043;-64
2022/07/27 02:56:56;;;;;;;13.63;3.67;;;;;;;9.40;100.00;101832.56;5054028;28;20040;-65
2022/07/27 02:59:22;;;;;;;10.90;3.65;;;;;;;9.42;100.00;101829.97;5053711;28;20025;-66
2022/07/27 03:01:48;;;;;;;18.02;4.00;;;;;;;9.47;100.00;101830.09;5053961;28;20021;-66
2022/07/27 03:04:14;;;;;;;14.27;4.00;;;;;;;9.51;100.00;101830.22;5053775;28;20478;-66
2022/07/27 03:06:40;;;;;;;13.13;3.92;;;;;;;9.54;100.00;101825.00;5053483;28;20032;-64
2022/07/27 03:09:06;;;;;;;16.17;4.40;;;;;;;9.53;100.00;101827.59;5053708;28;20047;-63
2022/07/27 03:11:31;;;;;;;14.32;4.18;;;;;;;9.52;100.00;101839.91;5053311;28;20104;-63
2022/07/27 03:13:56;;;;;;;17.50;3.97;;;;;;;9.43;100.00;101835.28;5053482;28;20029;-63
2022/07/27 03:16:22;;;;;;;15.65;3.90;;;;;;;9.45;100.00;101834.44;5053271;28;20043;-63
2022/07/27 03:18:47;;;;;;;15.40;4.18;;;;;;;9.43;100.00;101837.91;5053457;28;20047;-63
2022/07/27 03:21:13;;;;;;;13.63;3.83;;;;;;;9.40;100.00;101837.84;5053771;28;20443;-63
2022/07/27 03:23:38;;;;;;;14.38;4.18;;;;;;;9.37;100.00;101837.75;5053222;28;20100;-63
2022/07/27 03:26:04;;;;;;;16.67;4.53;;;;;;;9.39;100.00;101838.72;5053227;28;20028;-63
2022/07/27 03:28:29;;;;;;;16.13;4.13;;;;;;;9.36;100.00;101833.38;5053138;28;20025;-64
2022/07/27 03:30:54;;;;;;;14.93;4.35;;;;;;;9.36;100.00;101836.00;5053196;28;20105;-63
2022/07/27 03:33:20;;;;;;;14.73;4.15;;;;;;;9.33;100.00;101837.66;5052141;28;20040;-63
2022/07/27 03:35:45;;;;;;;15.45;4.40;;;;;;;9.40;100.00;101840.47;5053196;28;20036;-63
2022/07/27 03:38:10;;;;;;;12.98;4.18;;;;;;;9.37;100.00;101840.41;5052998;28;20064;-64
2022/07/27 03:40:36;;;;;;;15.55;4.22;;;;;;;9.35;100.00;101834.22;5053025;28;20060;-63
2022/07/27 03:43:01;;;;;;;14.13;4.28;;;;;;;9.33;100.00;101835.00;5052958;28;20031;-63
2022/07/27 03:45:27;;;;;;;18.13;4.55;;;;;;;9.26;100.00;101833.97;5053086;28;20151;-63
2022/07/27 03:47:52;;;;;;;17.85;4.57;;;;;;;9.29;100.00;101836.69;5052863;28;20396;-65
2022/07/27 03:50:18;;;;;;;16.23;4.47;;;;;;;9.27;100.00;101841.03;5053340;28;20017;-66
2022/07/27 03:52:44;;;;;;;16.17;4.30;;;;;;;9.35;100.00;101839.50;5052491;28;20476;-67
2022/07/27 03:55:09;;;;;;;17.55;4.72;;;;;;;9.49;100.00;101841.56;5052935;28;20498;-66
2022/07/27 03:57:34;;;;;;;18.80;4.90;;;;;;;9.66;100.00;101836.72;5052703;28;20024;-65
2022/07/27 04:00:00;;;;;;;15.95;4.60;;;;;;;9.75;100.00;101843.06;5052422;28;20122;-66
2022/07/27 04:02:25;;;;;;;17.10;4.80;;;;;;;9.89;100.00;101845.19;5052873;28;20029;-66
2022/07/27 04:04:51;;;;;;;18.50;4.75;;;;;;;10.04;100.00;101842.88;5052552;28;20027;-67
2022/07/27 04:07:16;;;;;;;16.52;4.60;;;;;;;10.10;100.00;101845.63;5052835;28;20095;-66
2022/07/27 04:09:41;;;;;;;16.48;4.50;;;;;;;10.20;100.00;101848.50;5052740;28;20067;-66
2022/07/27 04:12:07;;;;;;;15.13;4.65;;;;;;;10.21;100.00;101848.53;5052530;28;20029;-66
2022/07/27 04:14:32;;;;;;;15.98;4.40;;;;;;;10.25;100.00;101846.84;5052356;28;20075;-65
2022/07/27 04:16:58;;;;;;;15.30;4.38;;;;;;;10.24;100.00;101845.94;5052509;28;20029;-66
2022/07/27 04:19:23;;;;;;;15.57;4.43;;;;;;;10.28;100.00;101844.25;5052568;28;20032;-65
2022/07/27 04:21:48;;;;;;;16.58;4.60;;;;;;;10.30;100.00;101839.91;5052362;28;20021;-66
2022/07/27 04:24:14;;;;;;;16.15;4.60;;;;;;;10.34;100.00;101846.16;5052886;28;20032;-67
2022/07/27 04:26:39;;;;;;;17.88;4.57;;;;;;;10.32;100.00;101845.22;5052235;28;20459;-66
2022/07/27 04:29:05;;;;;;;17.45;4.35;;;;;;;10.33;100.00;101850.53;5056287;28;20025;-66
2022/07/27 04:31:30;;;;;;;14.98;4.80;;;;;;;10.29;100.00;101848.69;5056292;28;20033;-66
2022/07/27 04:33:56;;;;;;;14.80;4.53;;;;;;;10.26;100.00;101853.91;5056360;28;20048;-66
2022/07/27 04:36:21;;;;;;;16.85;4.53;;;;;;;10.33;100.00;101850.53;5056710;28;20032;-66
2022/07/27 04:38:47;;;;;;;16.60;4.88;;;;;;;10.39;100.00;101853.34;5056428;28;20494;-65
2022/07/27 04:41:12;;;;;;;16.17;4.85;;;;;;;10.40;100.00;101852.50;5056265;28;20490;-65
2022/07/27 04:43:38;;;;;;;18.48;4.88;;;;;;;10.49;100.00;101853.56;5056553;28;20025;-65
2022/07/27 04:46:04;;;;;;;16.10;4.90;;;;;;;10.53;100.00;101860.66;5052246;28;20033;-65
2022/07/27 04:48:31;;;;;;;18.30;5.00;;;;;;;10.57;100.00;101857.22;5056419;28;20025;-66
2022/07/27 04:50:56;;;;;;;17.30;4.75;;;;;;;10.68;100.00;101855.69;5056181;28;20033;-64
2022/07/27 04:53:22;;;;;;;17.42;5.20;;;;;;;10.71;100.00;101857.53;5056349;28;20035;-66
2022/07/27 04:55:47;;;;;;;18.58;5.00;;;;;;;10.77;100.00;101855.88;5054667;28;20055;-66
2022/07/27 04:58:14;;;;;;;17.73;5.07;;;;;;;10.82;100.00;101871.84;5056393;28;20029;-66
2022/07/27 05:00:39;;;;;;;17.17;5.00;;;;;;;10.85;100.00;101868.34;5055930;28;20448;-63
2022/07/27 05:03:04;;;;;;;16.83;5.03;;;;;;;10.89;100.00;101868.47;5055737;28;20105;-63
2022/07/27 05:05:30;;;;;;;18.33;4.93;;;;;;;10.92;100.00;101873.81;5055998;28;20057;-63
2022/07/27 05:07:56;;;;;;;19.63;5.30;;;;;;;10.93;100.00;101872.06;5055951;28;20029;-63
2022/07/27 05:10:39;;;;;;;17.23;5.10;;;;;;;10.96;100.00;101874.75;5055844;28;20025;-63
2022/07/27 05:13:04;;;;;;;19.50;5.40;;;;;;;11.02;100.00;101879.28;5051964;28;20487;-63
2022/07/27 05:15:30;;;;;;;19.95;5.53;;;;;;;11.04;100.00;101872.25;5055595;28;20032;-63
2022/07/27 05:17:55;;;;;;;18.58;5.40;;;;;;;11.11;100.00;101874.13;5051835;28;20079;-63
2022/07/27 05:20:20;;;;;;;20.05;6.13;;;;;;;11.12;100.00;101876.81;5054158;28;20025;-64
2022/07/27 05:22:46;;;;;;;21.58;5.80;;;;;;;11.17;100.00;101876.94;5053591;28;20025;-64
2022/07/27 05:25:11;;;;;;;21.77;6.13;;;;;;;11.19;100.00;101883.13;5053052;28;20056;-64
2022/07/27 05:27:37;;;;;;;21.02;6.00;;;;;;;11.24;100.00;101885.84;5053313;28;20032;-64
2022/07/27 05:30:04;;;;;;;21.60;6.10;;;;;;;11.27;100.00;101897.41;5053756;28;20053;-63
2022/07/27 05:32:29;;;;;;;19.23;6.13;;;;;;;11.34;100.00;101898.38;5052841;28;20031;-63
2022/07/27 05:34:55;;;;;;;19.73;6.13;;;;;;;11.41;100.00;101892.34;5053763;28;20029;-64
2022/07/27 05:37:20;;;;;;;18.98;6.18;;;;;;;11.51;100.00;101899.56;5052926;28;20112;-62
2022/07/27 05:39:45;;;;;;;21.40;6.50;;;;;;;11.61;100.00;101897.09;5053139;28;20044;-63
2022/07/27 05:42:11;;;;;;;21.40;7.15;;;;;;;11.67;100.00;101892.78;5051637;28;20488;-64
2022/07/27 05:44:36;;;;;;;19.45;6.40;;;;;;;11.74;100.00;101890.25;5053477;28;20017;-64
2022/07/27 05:47:01;;;;;;;19.48;6.10;;;;;;;11.83;100.00;101890.38;5053244;28;20475;-65
2022/07/27 05:49:27;;;;;;;18.83;6.25;;;;;;;11.93;100.00;101883.47;5053207;28;20109;-64
2022/07/27 05:51:52;;;;;;;19.23;6.22;;;;;;;12.01;100.00;101888.06;5050999;28;20063;-65
2022/07/27 05:54:19;;;;;;;17.27;5.65;;;;;;;12.11;100.00;101890.84;5053036;28;20065;-64
2022/07/27 05:56:44;;;;;;;18.90;5.82;;;;;;;12.17;100.00;101894.47;5053052;28;20087;-64
2022/07/27 05:59:10;;;;;;;18.70;6.05;;;;;;;12.25;100.00;101897.22;5053154;28;20025;-64
2022/07/27 06:01:36;;;;;;;18.23;5.57;;;;;;;12.32;100.00;101904.41;5052342;28;20094;-63
2022/07/27 06:04:02;;;;;;;19.50;5.47;;;;;;;12.38;100.00;101899.19;5052691;28;20028;-64
2022/07/27 06:09:12;;;;;;;17.73;5.53;;;;;;;12.54;100.00;101908.22;5051944;28;20048;-64
2022/07/27 06:11:37;;;;;;;17.58;5.10;;;;;;;12.60;100.00;101899.47;5053032;28;20452;-63
2022/07/27 06:14:03;;;;;;;17.48;5.05;;;;;;;12.67;100.00;101906.63;5052607;28;20029;-64
2022/07/27 06:16:28;;;;;;;17.42;4.88;;;;;;;12.77;100.00;101906.72;5052663;28;20025;-65
2022/07/27 06:18:53;;;;;;;15.10;4.80;;;;;;;12.86;100.00;101914.81;5053281;28;20031;-64
2022/07/27 06:21:19;;;;;;;15.55;4.60;;;;;;;12.95;100.00;101908.72;5052436;28;20135;-65
2022/07/27 06:23:47;;;;;;;18.15;4.70;;;;;;;13.04;100.00;101900.88;5051081;28;20029;-64
2022/07/27 06:26:12;;;;;;;15.60;4.60;;;;;;;13.10;100.00;101903.56;5052318;28;20029;-64
2022/07/27 06:28:38;;;;;;;16.67;4.65;;;;;;;13.16;100.00;101906.28;5052064;28;20033;-64
2022/07/27 06:31:03;;;;;;;15.98;4.72;;;;;;;13.23;100.00;101902.81;5049757;28;20454;-67
2022/07/27 06:33:29;;;;;;;16.25;4.70;;;;;;;13.29;100.00;101903.78;5052280;28;20025;-66
2022/07/27 06:35:58;;;;;;;17.33;4.95;;;;;;;13.37;100.00;101910.97;5051989;28;20067;-66
2022/07/27 06:38:24;;;;;;;17.48;5.10;;;;;;;13.46;100.00;101907.50;5051184;28;20021;-69
2022/07/27 06:40:53;;;;;;;19.25;5.07;;;;;;;13.52;100.00;101912.00;5051554;28;20024;-66
2022/07/27 06:43:23;;;;;;;17.42;4.60;;;;;;;13.58;100.00;101917.34;5052037;28;20036;-66
2022/07/27 06:45:49;;;;;;;14.60;4.18;;;;;;;13.66;100.00;101913.00;5052069;28;20033;-67
2022/07/27 06:48:15;;;;;;;13.48;3.70;;;;;;;13.73;100.00;101909.53;5052249;28;20040;-69
2022/07/27 06:50:41;;;;;;;16.02;3.90;;;;;;;13.81;100.00;101912.25;5051180;28;20028;-68
2022/07/27 06:53:06;;;;;;;14.07;3.50;;;;;;;13.90;100.00;101911.41;5050963;28;20057;-66
2022/07/27 06:55:32;;;;;;;9.98;3.05;;;;;;;14.00;100.00;101915.03;5052434;28;20076;-66
2022/07/27 06:57:57;;;;;;;9.00;2.63;;;;;;;14.12;100.00;101912.47;5052029;28;20031;-68
2022/07/27 07:00:22;;;;;;;14.70;2.78;;;;;;;14.23;100.00;101913.41;5052266;28;20032;-70
2022/07/27 07:02:53;;;;;;;8.98;2.60;;;;;;;14.38;100.00;101909.94;5051317;28;20032;-72
2022/07/27 07:05:19;;;;;;;11.20;2.60;;;;;;;14.55;100.00;101925.13;5050487;28;20029;-70
2022/07/27 07:07:44;;;;;;;9.25;2.50;;;;;;;14.74;100.00;101919.03;5051764;28;20021;-66
2022/07/27 07:10:10;;;;;;;12.65;2.80;;;;;;;14.91;100.00;101929.75;5052072;28;20082;-67
2022/07/27 07:12:35;;;;;;;10.88;2.60;;;;;;;15.18;100.00;101927.16;5051437;28;20078;-66
2022/07/27 07:15:00;;;;;;;12.40;2.70;;;;;;;15.53;100.00;101937.88;5051636;28;20021;-67
2022/07/27 07:17:26;;;;;;;13.20;2.60;;;;;;;15.75;100.00;101928.09;5051050;28;20075;-67
2022/07/27 07:19:51;;;;;;;12.98;2.70;;;;;;;15.99;100.00;101919.25;5051619;28;20536;-66
2022/07/27 07:22:16;;;;;;;9.07;2.63;;;;;;;16.18;100.00;101922.78;5051632;28;20033;-64
2022/07/27 07:24:41;;;;;;;11.88;2.60;;;;;;;16.25;100.00;101922.75;5051578;28;20021;-64
2022/07/27 07:27:07;;;;;;;10.52;2.60;;;;;;;16.36;100.00;101927.19;5051252;28;20029;-63
2022/07/27 07:29:32;;;;;;;11.73;2.75;;;;;;;16.50;100.00;101928.94;5051454;28;20471;-64
2022/07/27 07:31:57;;;;;;;10.18;2.63;;;;;;;16.71;100.00;101927.97;5051335;28;20455;-63
2022/07/27 07:34:23;;;;;;;11.27;2.70;;;;;;;17.02;100.00;101933.19;5051429;28;20041;-64
2022/07/27 07:36:48;;;;;;;14.18;2.58;;;;;;;17.33;100.00;101939.25;5051488;28;20116;-64
2022/07/27 07:39:13;;;;;;;13.60;2.50;;;;;;;17.59;100.00;101939.06;5050683;28;20036;-64
2022/07/27 07:41:39;;;;;;;11.02;2.30;;;;;;;17.87;100.00;101932.63;5051418;28;20021;-64
2022/07/27 07:44:05;;;;;;;9.73;2.47;;;;;;;18.06;100.00;101941.41;5052925;28;20025;-63
2022/07/27 07:46:30;;;;;;;7.88;2.20;;;;;;;18.20;96.74;101936.81;5053012;28;20036;-63
2022/07/27 07:48:56;;;;;;;12.48;2.45;;;;;;;18.33;95.42;101937.53;5051544;28;20115;-64
2022/07/27 07:51:21;;;;;;;7.03;2.15;;;;;;;18.65;95.24;101941.63;5052573;28;20047;-64
2022/07/27 07:53:46;;;;;;;10.73;2.42;;;;;;;18.92;92.81;101936.88;5052690;28;20115;-64
2022/07/27 07:56:13;;;;;;;11.32;2.40;;;;;;;19.01;89.27;101943.91;5047184;28;20025;-64
2022/07/27 07:58:38;;;;;;;10.63;2.75;;;;;;;19.24;90.87;101946.28;5049196;28;20033;-69
2022/07/27 08:01:03;;;;;;;9.30;2.50;;;;;;;19.28;87.96;101946.22;5047815;28;20070;-69
2022/07/27 08:03:29;;;;;;;10.35;2.30;;;;;;;19.28;83.00;101947.97;5048475;28;20035;-70
2022/07/27 08:05:54;;;;;;;9.85;2.35;;;;;;;19.25;83.58;101946.25;5049829;28;20045;-69
2022/07/27 08:08:19;;;;;;;11.57;2.50;;;;;;;19.16;85.64;101944.59;5050768;28;20032;-69
2022/07/27 08:10:45;;;;;;;11.68;2.60;;;;;;;18.98;86.78;101951.06;5051276;28;20025;-64
2022/07/27 08:13:10;;;;;;;9.40;2.47;;;;;;;18.76;87.93;101953.09;5050851;28;20522;-68
2022/07/27 08:15:35;;;;;;;10.98;2.60;;;;;;;18.54;88.91;101954.28;5050470;28;20425;-64
2022/07/27 08:18:01;;;;;;;9.63;2.50;;;;;;;18.45;89.07;101950.78;5050422;28;20484;-63
2022/07/27 08:20:27;;;;;;;10.77;2.40;;;;;;;18.41;87.83;101951.72;5050591;28;20532;-64
2022/07/27 08:22:52;;;;;;;12.77;2.60;;;;;;;18.29;88.70;101957.22;5051916;28;20025;-64
2022/07/27 08:25:18;;;;;;;14.45;2.50;;;;;;;18.12;89.56;101954.72;5052568;28;20495;-63
2022/07/27 08:27:43;;;;;;;13.95;2.50;;;;;;;18.16;88.95;101951.09;5052290;28;20061;-68
2022/07/27 08:30:09;;;;;;;9.35;2.30;;;;;;;18.37;87.92;101941.94;5052796;28;20024;-63
2022/07/27 08:32:49;;;;;;;11.38;2.30;;;;;;;18.76;88.67;101955.78;5052287;28;20029;-64
2022/07/27 08:35:16;;;;;;;9.55;2.20;;;;;;;19.05;81.53;101957.25;5048408;28;20052;-64
2022/07/27 08:37:42;;;;;;;9.88;2.22;;;;;;;19.30;79.65;101955.09;5052344;28;20049;-63
2022/07/27 08:40:07;;;;;;;9.50;2.40;;;;;;;19.61;78.23;101951.94;5049166;28;20552;-70
2022/07/27 08:42:33;;;;;;;10.65;2.17;;;;;;;20.15;77.07;101937.69;5050373;28;20029;-69
2022/07/27 08:44:59;;;;;;;12.40;2.30;;;;;;;20.92;72.82;101939.75;5050086;28;20464;-70
2022/07/27 08:47:25;;;;;;;10.18;2.40;;;;;;;21.51;71.85;101940.22;5050241;28;20035;-70
2022/07/27 08:49:50;;;;;;;10.00;2.40;;;;;;;21.93;71.21;101953.53;5050094;28;20025;-68
2022/07/27 08:52:17;;;;;;;12.45;2.70;;;;;;;22.14;66.34;101951.19;5050553;28;20122;-70
2022/07/27 08:54:42;;;;;;;9.98;2.45;;;;;;;22.10;62.17;101952.19;5050384;28;20104;-69
2022/07/27 08:57:08;;;;;;;10.75;2.30;;;;;;;22.38;61.59;101943.41;5050346;28;20112;-69
2022/07/27 08:59:34;;;;;;;6.90;2.30;;;;;;;22.37;54.73;101944.34;5049831;28;20386;-67
2022/07/27 09:02:00;;;;;;;13.40;2.65;;;;;;;22.14;54.21;101945.81;5050215;28;20100;-69
2022/07/27 09:04:25;;;;;;;8.52;2.60;;;;;;;21.85;54.45;101947.44;5049426;28;20472;-68
2022/07/27 09:06:51;;;;;;;7.45;2.20;;;;;;;21.89;50.54;101950.97;5050385;28;20032;-68
2022/07/27 09:09:18;;;;;;;12.25;2.42;;;;;;;22.27;51.84;101963.41;5050391;28;20036;-69
2022/07/27 09:12:02;;;;;;;8.75;2.20;;;;;;;22.70;51.88;101949.69;5050117;28;20028;-66
2022/07/27 09:14:32;;;;;;;11.18;2.28;;;;;;;22.74;42.51;101952.25;5051867;28;20029;-68
2022/07/27 09:16:58;;;;;;;11.25;2.30;;;;;;;22.94;42.80;101957.03;5053558;28;20024;-63
2022/07/27 09:19:23;;;;;;;10.35;2.10;;;;;;;22.92;43.92;101953.53;5054506;28;20075;-65
2022/07/27 09:21:48;;;;;;;6.60;2.20;;;;;;;22.77;42.98;101948.56;5054116;28;20032;-64
2022/07/27 09:24:15;;;;;;;10.60;2.17;;;;;;;22.69;42.92;101958.69;5054575;28;20495;-64
2022/07/27 09:26:41;;;;;;;9.32;2.10;;;;;;;22.74;41.85;101956.75;5055559;28;20031;-63
2022/07/27 09:29:12;;;;;;;6.20;2.10;;;;;;;23.20;40.78;101955.41;5055425;28;20108;-65
2022/07/27 09:31:45;;;;;;;9.75;2.20;;;;;;;23.36;41.89;101954.91;5055407;28;20044;-65
2022/07/27 09:34:12;;;;;;;8.15;2.28;;;;;;;23.36;40.79;101957.59;5055716;28;20029;-64
2022/07/27 09:36:52;;;;;;;8.35;2.00;;;;;;;23.28;42.45;101958.72;5055223;28;20075;-63
2022/07/27 09:39:20;;;;;;;8.57;2.10;;;;;;;22.68;41.84;101959.63;5055448;28;20037;-65
2022/07/27 09:41:54;;;;;;;10.65;2.00;;;;;;;22.21;43.24;101958.19;5055387;28;20067;-65
2022/07/27 09:44:49;;;;;;;12.55;2.30;;;;;;;21.68;48.33;101963.13;5051328;28;20361;-67
2022/07/27 09:47:27;;;;;;;11.90;2.30;;;;;;;21.01;51.12;101959.25;5043386;28;20055;-66
2022/07/27 09:50:14;;;;;;;13.20;2.60;;;;;;;20.22;54.63;101961.72;5037849;28;20492;-65
2022/07/27 09:52:39;;;;;;;14.82;2.60;;;;;;;19.47;57.06;101954.84;5041942;28;20053;-66
2022/07/27 09:55:05;;;;;;;18.52;2.92;;;;;;;19.23;57.60;101952.53;5043057;28;20032;-65
2022/07/27 09:57:50;;;;;;;12.45;2.65;;;;;;;19.41;57.59;101952.28;5042033;28;20049;-65
2022/07/27 10:00:16;;;;;;;15.27;2.65;;;;;;;19.72;58.99;101950.88;5038852;28;20076;-68
2022/07/27 10:02:42;;;;;;;9.13;2.40;;;;;;;22.11;51.46;101953.97;5042156;28;20067;-68
2022/07/27 10:05:08;;;;;;;15.07;2.50;;;;;;;23.27;46.52;101950.69;5038078;28;20029;-67
2022/07/27 10:07:34;;;;;;;9.48;2.20;;;;;;;25.05;43.14;101957.09;5038623;28;20047;-67
2022/07/27 10:10:01;;;;;;;10.25;2.40;;;;;;;25.30;40.89;101964.25;5034331;28;20519;-68
2022/07/27 10:12:30;;;;;;;9.40;2.40;;;;;;;24.35;41.99;101964.19;5045219;28;20507;-68
2022/07/27 10:14:55;;;;;;;9.45;2.40;;;;;;;23.26;44.89;101966.00;5039958;28;20033;-67
2022/07/27 10:17:22;;;;;;;12.88;2.38;;;;;;;22.56;47.28;101950.97;5041934;28;20037;-67
2022/07/27 10:19:51;;;;;;;11.25;2.30;;;;;;;22.03;47.63;101946.13;5042066;28;20558;-64
2022/07/27 10:22:48;;;;;;;9.50;2.28;;;;;;;21.70;50.37;101958.63;5043230;28;20033;-65
2022/07/27 10:25:13;;;;;;;12.23;2.40;;;;;;;24.45;45.25;101942.22;5051247;28;20779;-65
2022/07/27 10:27:39;;;;;;;9.10;2.40;;;;;;;26.67;40.19;101940.41;5053729;28;20115;-65
2022/07/27 10:30:04;;;;;;;11.55;2.30;;;;;;;28.15;36.40;101947.66;5054596;28;20029;-65
2022/07/27 10:32:32;;;;;;;9.25;2.30;;;;;;;29.46;31.56;101941.44;5049411;28;20396;-65
2022/07/27 10:35:00;;;;;;;10.05;2.38;;;;;;;30.33;28.71;101938.03;5054020;28;20131;-65
2022/07/27 10:37:30;;;;;;;10.05;2.20;;;;;;;30.17;28.33;101943.56;5054425;28;20025;-67
2022/07/27 10:42:45;;;;;;;8.13;2.20;;;;;;;26.02;34.61;101936.06;5050666;28;20067;-66
2022/07/27 10:45:16;;;;;;;9.15;2.38;;;;;;;24.06;38.93;101942.72;5050704;28;20028;-67
2022/07/27 10:47:47;;;;;;;12.10;2.30;;;;;;;22.88;41.39;101932.09;5050492;28;20035;-66
2022/07/27 10:50:15;;;;;;;9.80;2.33;;;;;;;22.08;43.56;101936.09;5054284;28;20078;-67
2022/07/27 10:52:51;;;;;;;9.07;2.22;;;;;;;21.88;44.59;101928.53;5049930;28;20090;-65
2022/07/27 10:55:28;;;;;;;8.73;2.10;;;;;;;21.85;45.68;101925.06;5052501;28;20044;-64
2022/07/27 10:58:03;;;;;;;9.52;2.22;;;;;;;21.83;45.18;101921.50;5050427;28;20111;-65
2022/07/27 11:00:50;;;;;;;10.88;2.30;;;;;;;21.79;45.09;101918.00;5052160;28;20041;-64
2022/07/27 11:03:22;;;;;;;10.82;2.30;;;;;;;21.66;46.14;101921.94;5048246;28;20112;-64
2022/07/27 11:06:06;;;;;;;9.52;2.40;;;;;;;21.56;46.40;101922.16;5051479;28;20490;-64
2022/07/27 11:08:34;;;;;;;9.63;2.50;;;;;;;21.44;45.99;101925.13;5050176;28;20544;-64
2022/07/27 11:11:00;;;;;;;11.88;2.50;;;;;;;21.40;46.06;101931.50;5051816;28;20060;-64
2022/07/27 11:13:27;;;;;;;11.95;2.50;;;;;;;21.18;46.31;101923.91;5051977;28;20031;-64
2022/07/27 11:15:55;;;;;;;11.75;2.70;;;;;;;21.27;47.23;101921.94;5050725;28;20116;-65
2022/07/27 11:18:26;;;;;;;12.25;2.63;;;;;;;21.70;46.08;101920.94;5051998;28;20032;-65
2022/07/27 11:20:51;;;;;;;10.82;2.20;;;;;;;22.07;45.32;101920.84;5052296;28;20033;-65